sensor_id;sensor_type;location;lat;lon;timestamp;P1;durP1;ratioP1;P2;durP2;ratioP2
44446;SDS011;30152;52.066;5.358;2023-02-23T07:43:21;81.88;;;31.33;;
44446;SDS011;30152;52.066;5.358;2023-02-23T07:45:48;84.32;;;31.40;;
44446;SDS011;30152;52.066;5.358;2023-02-23T07:48:18;88.38;;;31.27;;
44446;SDS011;30152;52.066;5.358;2023-02-23T07:50:44;86.35;;;30.67;;
44446;SDS011;30152;52.066;5.358;2023-02-23T07:53:10;79.28;;;30.13;;
44446;SDS011;30152;52.066;5.358;2023-02-23T07:55:36;86.63;;;30.88;;
44446;SDS011;30152;52.066;5.358;2023-02-23T07:58:04;80.57;;;30.17;;
44446;SDS011;30152;52.066;5.358;2023-02-23T08:00:31;75.80;;;30.33;;
44446;SDS011;30152;52.066;5.358;2023-02-23T08:02:58;78.80;;;30.65;;
44446;SDS011;30152;52.066;5.358;2023-02-23T08:05:25;82.88;;;30.45;;
44446;SDS011;30152;52.066;5.358;2023-02-23T08:07:52;85.10;;;31.40;;
44446;SDS011;30152;52.066;5.358;2023-02-23T08:10:18;89.55;;;32.85;;
44446;SDS011;30152;52.066;5.358;2023-02-23T08:12:44;85.40;;;30.67;;
44446;SDS011;30152;52.066;5.358;2023-02-23T08:15:09;91.55;;;32.83;;
44446;SDS011;30152;52.066;5.358;2023-02-23T08:17:35;76.95;;;30.98;;
44446;SDS011;30152;52.066;5.358;2023-02-23T08:20:03;80.22;;;30.30;;
44446;SDS011;30152;52.066;5.358;2023-02-23T08:22:29;82.60;;;29.75;;
44446;SDS011;30152;52.066;5.358;2023-02-23T08:24:55;87.70;;;31.88;;
44446;SDS011;30152;52.066;5.358;2023-02-23T08:27:20;83.97;;;31.55;;
44446;SDS011;30152;52.066;5.358;2023-02-23T08:29:46;90.25;;;33.53;;
44446;SDS011;30152;52.066;5.358;2023-02-23T08:32:12;100.32;;;33.65;;
44446;SDS011;30152;52.066;5.358;2023-02-23T08:34:40;90.82;;;32.35;;
44446;SDS011;30152;52.066;5.358;2023-02-23T08:37:07;95.13;;;32.45;;
44446;SDS011;30152;52.066;5.358;2023-02-23T08:39:32;83.53;;;31.10;;
44446;SDS011;30152;52.066;5.358;2023-02-23T08:41:58;85.45;;;30.63;;
44446;SDS011;30152;52.066;5.358;2023-02-23T08:44:24;90.63;;;31.77;;
44446;SDS011;30152;52.066;5.358;2023-02-23T08:46:50;91.95;;;32.35;;
44446;SDS011;30152;52.066;5.358;2023-02-23T08:49:17;89.47;;;30.08;;
44446;SDS011;30152;52.066;5.358;2023-02-23T08:51:43;83.90;;;30.25;;
44446;SDS011;30152;52.066;5.358;2023-02-23T08:54:11;86.43;;;30.83;;
44446;SDS011;30152;52.066;5.358;2023-02-23T08:56:39;83.80;;;31.23;;
44446;SDS011;30152;52.066;5.358;2023-02-23T08:59:05;83.53;;;29.75;;
44446;SDS011;30152;52.066;5.358;2023-02-23T09:01:31;80.95;;;29.42;;
44446;SDS011;30152;52.066;5.358;2023-02-23T09:03:57;96.68;;;33.08;;
44446;SDS011;30152;52.066;5.358;2023-02-23T09:06:24;83.38;;;29.63;;
44446;SDS011;30152;52.066;5.358;2023-02-23T09:08:50;83.30;;;30.38;;
44446;SDS011;30152;52.066;5.358;2023-02-23T09:11:18;86.35;;;31.38;;
44446;SDS011;30152;52.066;5.358;2023-02-23T09:13:44;74.50;;;29.27;;
44446;SDS011;30152;52.066;5.358;2023-02-23T09:16:09;79.47;;;29.08;;
44446;SDS011;30152;52.066;5.358;2023-02-23T09:18:35;84.05;;;30.27;;
44446;SDS011;30152;52.066;5.358;2023-02-23T09:21:02;78.13;;;29.25;;
44446;SDS011;30152;52.066;5.358;2023-02-23T09:23:30;84.03;;;29.67;;
44446;SDS011;30152;52.066;5.358;2023-02-23T09:25:56;73.82;;;28.23;;
44446;SDS011;30152;52.066;5.358;2023-02-23T09:28:22;75.07;;;27.20;;
44446;SDS011;30152;52.066;5.358;2023-02-23T09:30:47;79.18;;;27.92;;
44446;SDS011;30152;52.066;5.358;2023-02-23T09:33:13;80.80;;;28.42;;
44446;SDS011;30152;52.066;5.358;2023-02-23T09:35:39;72.43;;;25.35;;
44446;SDS011;30152;52.066;5.358;2023-02-23T09:38:05;69.75;;;27.00;;
44446;SDS011;30152;52.066;5.358;2023-02-23T09:40:50;75.88;;;28.50;;
44446;SDS011;30152;52.066;5.358;2023-02-23T09:48:43;69.95;;;25.67;;
44446;SDS011;30152;52.066;5.358;2023-02-23T09:51:11;78.32;;;27.20;;
44446;SDS011;30152;52.066;5.358;2023-02-23T09:53:42;73.85;;;25.15;;
44446;SDS011;30152;52.066;5.358;2023-02-23T09:58:43;69.93;;;25.83;;
44446;SDS011;30152;52.066;5.358;2023-02-23T10:06:51;69.68;;;23.77;;
44446;SDS011;30152;52.066;5.358;2023-02-23T10:12:06;64.22;;;25.42;;
44446;SDS011;30152;52.066;5.358;2023-02-23T10:20:03;61.90;;;23.60;;
44446;SDS011;30152;52.066;5.358;2023-02-23T10:22:40;62.97;;;23.95;;
44446;SDS011;30152;52.066;5.358;2023-02-23T10:25:09;64.65;;;24.58;;
44446;SDS011;30152;52.066;5.358;2023-02-23T10:27:42;65.03;;;24.15;;
44446;SDS011;30152;52.066;5.358;2023-02-23T10:30:24;65.10;;;25.27;;
44446;SDS011;30152;52.066;5.358;2023-02-23T10:32:55;62.38;;;22.92;;
44446;SDS011;30152;52.066;5.358;2023-02-23T10:35:41;57.55;;;23.08;;
44446;SDS011;30152;52.066;5.358;2023-02-23T10:38:07;64.63;;;23.73;;
44446;SDS011;30152;52.066;5.358;2023-02-23T10:40:37;68.80;;;26.13;;
44446;SDS011;30152;52.066;5.358;2023-02-23T10:43:03;71.55;;;26.95;;
44446;SDS011;30152;52.066;5.358;2023-02-23T10:45:40;63.72;;;24.55;;
44446;SDS011;30152;52.066;5.358;2023-02-23T10:48:18;65.30;;;23.17;;
44446;SDS011;30152;52.066;5.358;2023-02-23T10:50:47;65.70;;;23.77;;
44446;SDS011;30152;52.066;5.358;2023-02-23T10:53:20;62.85;;;23.40;;
44446;SDS011;30152;52.066;5.358;2023-02-23T10:56:02;67.25;;;24.52;;
44446;SDS011;30152;52.066;5.358;2023-02-23T10:58:42;61.42;;;22.48;;
44446;SDS011;30152;52.066;5.358;2023-02-23T11:01:11;56.80;;;21.77;;
44446;SDS011;30152;52.066;5.358;2023-02-23T11:03:54;64.55;;;22.90;;
44446;SDS011;30152;52.066;5.358;2023-02-23T11:06:28;59.92;;;23.27;;
44446;SDS011;30152;52.066;5.358;2023-02-23T11:09:21;57.53;;;21.65;;
44446;SDS011;30152;52.066;5.358;2023-02-23T11:14:40;62.00;;;22.98;;
44446;SDS011;30152;52.066;5.358;2023-02-23T11:17:08;50.92;;;20.05;;
44446;SDS011;30152;52.066;5.358;2023-02-23T11:19:50;51.22;;;19.85;;
44446;SDS011;30152;52.066;5.358;2023-02-23T11:22:18;50.70;;;20.02;;
44446;SDS011;30152;52.066;5.358;2023-02-23T11:24:47;54.67;;;21.13;;
44446;SDS011;30152;52.066;5.358;2023-02-23T11:27:20;57.72;;;20.27;;
44446;SDS011;30152;52.066;5.358;2023-02-23T11:29:49;53.30;;;20.33;;
44446;SDS011;30152;52.066;5.358;2023-02-23T11:32:21;45.20;;;18.70;;
44446;SDS011;30152;52.066;5.358;2023-02-23T11:35:10;43.95;;;18.40;;
44446;SDS011;30152;52.066;5.358;2023-02-23T11:37:46;42.75;;;17.20;;
44446;SDS011;30152;52.066;5.358;2023-02-23T11:40:24;39.97;;;16.38;;
44446;SDS011;30152;52.066;5.358;2023-02-23T11:42:53;44.58;;;17.35;;
44446;SDS011;30152;52.066;5.358;2023-02-23T11:48:18;39.05;;;16.52;;
44446;SDS011;30152;52.066;5.358;2023-02-23T11:50:48;33.22;;;15.25;;
44446;SDS011;30152;52.066;5.358;2023-02-23T11:53:15;38.30;;;15.68;;
44446;SDS011;30152;52.066;5.358;2023-02-23T11:55:49;38.72;;;14.93;;
44446;SDS011;30152;52.066;5.358;2023-02-23T11:58:36;39.35;;;15.80;;
44446;SDS011;30152;52.066;5.358;2023-02-23T12:01:07;33.35;;;14.38;;
44446;SDS011;30152;52.066;5.358;2023-02-23T12:03:36;35.13;;;14.38;;
44446;SDS011;30152;52.066;5.358;2023-02-23T12:06:11;31.63;;;13.93;;
44446;SDS011;30152;52.066;5.358;2023-02-23T12:08:42;32.50;;;13.52;;
44446;SDS011;30152;52.066;5.358;2023-02-23T12:11:12;30.27;;;13.10;;
44446;SDS011;30152;52.066;5.358;2023-02-23T12:13:44;24.13;;;11.40;;
44446;SDS011;30152;52.066;5.358;2023-02-23T12:21:28;36.47;;;13.15;;
44446;SDS011;30152;52.066;5.358;2023-02-23T12:24:12;34.45;;;12.90;;
44446;SDS011;30152;52.066;5.358;2023-02-23T12:26:58;35.38;;;12.95;;
44446;SDS011;30152;52.066;5.358;2023-02-23T12:32:21;33.78;;;13.40;;
44446;SDS011;30152;52.066;5.358;2023-02-23T12:34:54;29.98;;;13.77;;
44446;SDS011;30152;52.066;5.358;2023-02-23T12:37:33;39.90;;;14.73;;
44446;SDS011;30152;52.066;5.358;2023-02-23T12:44:58;32.65;;;13.85;;
44446;SDS011;30152;52.066;5.358;2023-02-23T12:52:52;35.08;;;14.05;;
44446;SDS011;30152;52.066;5.358;2023-02-23T12:58:40;36.17;;;14.10;;
44446;SDS011;30152;52.066;5.358;2023-02-23T13:01:30;32.78;;;13.93;;
44446;SDS011;30152;52.066;5.358;2023-02-23T13:06:38;35.42;;;13.15;;
44446;SDS011;30152;52.066;5.358;2023-02-23T13:11:44;35.33;;;14.90;;
44446;SDS011;30152;52.066;5.358;2023-02-23T13:14:36;36.95;;;14.23;;
44446;SDS011;30152;52.066;5.358;2023-02-23T13:17:13;36.70;;;14.27;;
44446;SDS011;30152;52.066;5.358;2023-02-23T13:19:52;33.78;;;14.15;;
44446;SDS011;30152;52.066;5.358;2023-02-23T13:25:19;32.90;;;12.40;;
44446;SDS011;30152;52.066;5.358;2023-02-23T13:28:08;39.92;;;14.52;;
44446;SDS011;30152;52.066;5.358;2023-02-23T13:30:41;30.52;;;12.73;;
44446;SDS011;30152;52.066;5.358;2023-02-23T13:33:23;32.30;;;12.02;;
44446;SDS011;30152;52.066;5.358;2023-02-23T13:35:50;29.67;;;11.57;;
44446;SDS011;30152;52.066;5.358;2023-02-23T13:38:22;27.67;;;11.20;;
44446;SDS011;30152;52.066;5.358;2023-02-23T13:40:58;23.88;;;10.75;;
44446;SDS011;30152;52.066;5.358;2023-02-23T13:43:40;24.17;;;10.82;;
44446;SDS011;30152;52.066;5.358;2023-02-23T13:46:34;25.88;;;9.55;;
44446;SDS011;30152;52.066;5.358;2023-02-23T13:51:59;25.42;;;10.23;;
44446;SDS011;30152;52.066;5.358;2023-02-23T13:54:31;26.83;;;10.05;;
44446;SDS011;30152;52.066;5.358;2023-02-23T13:56:58;25.23;;;10.38;;
44446;SDS011;30152;52.066;5.358;2023-02-23T13:59:26;31.98;;;11.93;;
44446;SDS011;30152;52.066;5.358;2023-02-23T14:01:53;27.45;;;10.98;;
44446;SDS011;30152;52.066;5.358;2023-02-23T14:04:21;24.60;;;10.38;;
44446;SDS011;30152;52.066;5.358;2023-02-23T14:07:30;25.38;;;10.95;;
44446;SDS011;30152;52.066;5.358;2023-02-23T14:09:39;25.17;;;10.48;;
44446;SDS011;30152;52.066;5.358;2023-02-23T14:14:50;28.13;;;11.32;;
44446;SDS011;30152;52.066;5.358;2023-02-23T14:22:15;28.17;;;10.57;;
44446;SDS011;30152;52.066;5.358;2023-02-23T14:24:45;27.38;;;10.60;;
44446;SDS011;30152;52.066;5.358;2023-02-23T14:30:11;28.67;;;11.23;;
44446;SDS011;30152;52.066;5.358;2023-02-23T14:32:41;29.52;;;12.35;;
44446;SDS011;30152;52.066;5.358;2023-02-23T14:37:53;30.02;;;12.35;;
44446;SDS011;30152;52.066;5.358;2023-02-23T14:40:28;34.63;;;11.52;;
44446;SDS011;30152;52.066;5.358;2023-02-23T14:42:56;27.80;;;11.73;;
44446;SDS011;30152;52.066;5.358;2023-02-23T14:45:23;27.73;;;12.23;;
44446;SDS011;30152;52.066;5.358;2023-02-23T14:47:51;31.67;;;12.13;;
44446;SDS011;30152;52.066;5.358;2023-02-23T14:50:22;33.60;;;13.38;;
44446;SDS011;30152;52.066;5.358;2023-02-23T14:52:49;28.38;;;12.07;;
44446;SDS011;30152;52.066;5.358;2023-02-23T14:55:19;29.90;;;11.43;;
44446;SDS011;30152;52.066;5.358;2023-02-23T14:57:46;33.67;;;11.40;;
44446;SDS011;30152;52.066;5.358;2023-02-23T15:00:18;31.42;;;11.93;;
44446;SDS011;30152;52.066;5.358;2023-02-23T15:02:54;34.55;;;11.73;;
44446;SDS011;30152;52.066;5.358;2023-02-23T15:05:28;32.03;;;12.95;;
44446;SDS011;30152;52.066;5.358;2023-02-23T15:10:24;32.38;;;11.63;;
44446;SDS011;30152;52.066;5.358;2023-02-23T15:12:50;36.45;;;13.27;;
44446;SDS011;30152;52.066;5.358;2023-02-23T15:15:17;37.08;;;13.05;;
44446;SDS011;30152;52.066;5.358;2023-02-23T15:17:45;29.50;;;13.00;;
44446;SDS011;30152;52.066;5.358;2023-02-23T15:20:13;35.35;;;13.93;;
44446;SDS011;30152;52.066;5.358;2023-02-23T15:22:40;39.05;;;15.10;;
44446;SDS011;30152;52.066;5.358;2023-02-23T15:25:14;39.17;;;15.57;;
44446;SDS011;30152;52.066;5.358;2023-02-23T15:27:41;42.05;;;15.65;;
44446;SDS011;30152;52.066;5.358;2023-02-23T15:30:25;48.42;;;17.90;;
44446;SDS011;30152;52.066;5.358;2023-02-23T15:32:58;52.15;;;18.20;;
44446;SDS011;30152;52.066;5.358;2023-02-23T15:35:24;51.28;;;17.50;;
44446;SDS011;30152;52.066;5.358;2023-02-23T15:37:51;47.63;;;16.05;;
44446;SDS011;30152;52.066;5.358;2023-02-23T15:40:18;37.13;;;13.50;;
44446;SDS011;30152;52.066;5.358;2023-02-23T15:42:49;33.95;;;11.27;;
44446;SDS011;30152;52.066;5.358;2023-02-23T15:45:30;31.52;;;9.75;;
44446;SDS011;30152;52.066;5.358;2023-02-23T15:47:58;27.58;;;8.43;;
44446;SDS011;30152;52.066;5.358;2023-02-23T15:50:28;24.92;;;6.50;;
44446;SDS011;30152;52.066;5.358;2023-02-23T15:52:57;20.23;;;4.93;;
44446;SDS011;30152;52.066;5.358;2023-02-23T15:55:26;19.70;;;5.18;;
44446;SDS011;30152;52.066;5.358;2023-02-23T15:57:56;24.00;;;4.90;;
44446;SDS011;30152;52.066;5.358;2023-02-23T16:00:32;27.77;;;5.25;;
44446;SDS011;30152;52.066;5.358;2023-02-23T16:02:59;22.25;;;4.15;;
44446;SDS011;30152;52.066;5.358;2023-02-23T16:05:26;30.25;;;4.95;;
44446;SDS011;30152;52.066;5.358;2023-02-23T16:08:00;28.90;;;4.22;;
44446;SDS011;30152;52.066;5.358;2023-02-23T16:10:30;20.83;;;4.38;;
44446;SDS011;30152;52.066;5.358;2023-02-23T16:13:11;18.73;;;3.25;;
44446;SDS011;30152;52.066;5.358;2023-02-23T16:15:38;18.33;;;3.47;;
44446;SDS011;30152;52.066;5.358;2023-02-23T16:18:05;18.58;;;2.92;;
44446;SDS011;30152;52.066;5.358;2023-02-23T16:20:47;16.92;;;3.10;;
44446;SDS011;30152;52.066;5.358;2023-02-23T16:25:46;12.55;;;2.63;;
44446;SDS011;30152;52.066;5.358;2023-02-23T16:28:17;16.23;;;2.70;;
44446;SDS011;30152;52.066;5.358;2023-02-23T16:31:06;12.90;;;2.72;;
44446;SDS011;30152;52.066;5.358;2023-02-23T16:38:39;23.88;;;3.72;;
44446;SDS011;30152;52.066;5.358;2023-02-23T16:41:09;19.48;;;3.65;;
44446;SDS011;30152;52.066;5.358;2023-02-23T16:43:38;24.13;;;4.32;;
44446;SDS011;30152;52.066;5.358;2023-02-23T16:46:04;30.15;;;4.40;;
44446;SDS011;30152;52.066;5.358;2023-02-23T16:48:30;27.45;;;4.35;;
44446;SDS011;30152;52.066;5.358;2023-02-23T16:50:56;27.75;;;4.15;;
44446;SDS011;30152;52.066;5.358;2023-02-23T16:53:22;32.35;;;4.20;;
44446;SDS011;30152;52.066;5.358;2023-02-23T16:55:49;31.52;;;4.60;;
44446;SDS011;30152;52.066;5.358;2023-02-23T16:58:21;33.05;;;4.82;;
44446;SDS011;30152;52.066;5.358;2023-02-23T17:00:48;29.52;;;4.97;;
44446;SDS011;30152;52.066;5.358;2023-02-23T17:03:20;36.42;;;4.90;;
44446;SDS011;30152;52.066;5.358;2023-02-23T17:05:48;28.13;;;4.75;;
44446;SDS011;30152;52.066;5.358;2023-02-23T17:08:14;24.27;;;4.25;;
44446;SDS011;30152;52.066;5.358;2023-02-23T17:10:39;36.08;;;5.45;;
44446;SDS011;30152;52.066;5.358;2023-02-23T17:13:09;37.53;;;5.07;;
44446;SDS011;30152;52.066;5.358;2023-02-23T17:15:41;28.90;;;4.72;;
44446;SDS011;30152;52.066;5.358;2023-02-23T17:18:16;33.92;;;4.63;;
44446;SDS011;30152;52.066;5.358;2023-02-23T17:20:43;31.48;;;4.78;;
44446;SDS011;30152;52.066;5.358;2023-02-23T17:23:09;31.90;;;4.90;;
44446;SDS011;30152;52.066;5.358;2023-02-23T17:25:35;34.40;;;4.65;;
44446;SDS011;30152;52.066;5.358;2023-02-23T17:28:01;33.42;;;5.40;;
44446;SDS011;30152;52.066;5.358;2023-02-23T17:30:27;31.70;;;3.92;;
44446;SDS011;30152;52.066;5.358;2023-02-23T17:32:54;43.13;;;6.03;;
44446;SDS011;30152;52.066;5.358;2023-02-23T17:35:21;35.72;;;4.20;;
44446;SDS011;30152;52.066;5.358;2023-02-23T17:37:47;32.47;;;4.85;;
44446;SDS011;30152;52.066;5.358;2023-02-23T17:40:20;36.63;;;6.10;;
44446;SDS011;30152;52.066;5.358;2023-02-23T17:42:57;36.72;;;4.78;;
44446;SDS011;30152;52.066;5.358;2023-02-23T17:45:24;28.23;;;3.97;;
44446;SDS011;30152;52.066;5.358;2023-02-23T17:47:50;27.23;;;5.05;;
44446;SDS011;30152;52.066;5.358;2023-02-23T17:50:19;27.23;;;4.72;;
44446;SDS011;30152;52.066;5.358;2023-02-23T17:52:46;30.67;;;4.18;;
44446;SDS011;30152;52.066;5.358;2023-02-23T17:55:13;28.50;;;4.13;;
44446;SDS011;30152;52.066;5.358;2023-02-23T17:57:38;31.50;;;4.20;;
44446;SDS011;30152;52.066;5.358;2023-02-23T18:00:04;35.67;;;3.90;;
44446;SDS011;30152;52.066;5.358;2023-02-23T18:02:31;27.67;;;3.45;;
44446;SDS011;30152;52.066;5.358;2023-02-23T18:04:57;36.85;;;4.00;;
44446;SDS011;30152;52.066;5.358;2023-02-23T18:07:23;23.38;;;2.95;;
44446;SDS011;30152;52.066;5.358;2023-02-23T18:09:49;27.13;;;4.03;;
44446;SDS011;30152;52.066;5.358;2023-02-23T18:12:15;25.02;;;3.10;;
44446;SDS011;30152;52.066;5.358;2023-02-23T18:14:43;24.83;;;3.72;;
44446;SDS011;30152;52.066;5.358;2023-02-23T18:17:09;22.23;;;3.33;;
44446;SDS011;30152;52.066;5.358;2023-02-23T18:19:35;40.88;;;5.20;;
44446;SDS011;30152;52.066;5.358;2023-02-23T18:22:01;24.02;;;4.30;;
44446;SDS011;30152;52.066;5.358;2023-02-23T18:24:27;34.70;;;5.78;;
44446;SDS011;30152;52.066;5.358;2023-02-23T18:26:55;36.75;;;5.10;;
44446;SDS011;30152;52.066;5.358;2023-02-23T18:29:25;28.00;;;5.28;;
44446;SDS011;30152;52.066;5.358;2023-02-23T18:31:52;32.72;;;3.90;;
44446;SDS011;30152;52.066;5.358;2023-02-23T18:34:18;23.35;;;3.95;;
44446;SDS011;30152;52.066;5.358;2023-02-23T18:36:45;30.75;;;3.80;;
44446;SDS011;30152;52.066;5.358;2023-02-23T18:39:11;21.02;;;4.30;;
44446;SDS011;30152;52.066;5.358;2023-02-23T18:41:37;22.45;;;3.38;;
44446;SDS011;30152;52.066;5.358;2023-02-23T18:44:05;21.55;;;3.35;;
44446;SDS011;30152;52.066;5.358;2023-02-23T18:46:32;21.13;;;2.83;;
44446;SDS011;30152;52.066;5.358;2023-02-23T18:48:59;32.97;;;4.30;;
44446;SDS011;30152;52.066;5.358;2023-02-23T18:51:25;19.80;;;3.60;;
44446;SDS011;30152;52.066;5.358;2023-02-23T18:53:51;22.25;;;3.60;;
44446;SDS011;30152;52.066;5.358;2023-02-23T18:56:18;22.92;;;3.40;;
44446;SDS011;30152;52.066;5.358;2023-02-23T18:58:53;24.88;;;4.03;;
44446;SDS011;30152;52.066;5.358;2023-02-23T19:01:20;26.90;;;4.07;;
44446;SDS011;30152;52.066;5.358;2023-02-23T19:03:47;27.10;;;3.40;;
44446;SDS011;30152;52.066;5.358;2023-02-23T19:06:13;26.10;;;3.60;;
44446;SDS011;30152;52.066;5.358;2023-02-23T19:08:40;25.35;;;4.28;;
44446;SDS011;30152;52.066;5.358;2023-02-23T19:11:06;26.77;;;4.82;;
44446;SDS011;30152;52.066;5.358;2023-02-23T19:13:32;28.58;;;3.60;;
44446;SDS011;30152;52.066;5.358;2023-02-23T19:16:05;32.40;;;4.18;;
44446;SDS011;30152;52.066;5.358;2023-02-23T19:18:32;27.60;;;4.10;;
44446;SDS011;30152;52.066;5.358;2023-02-23T19:20:59;22.17;;;3.47;;
44446;SDS011;30152;52.066;5.358;2023-02-23T19:23:25;23.08;;;4.20;;
44446;SDS011;30152;52.066;5.358;2023-02-23T19:25:51;28.60;;;4.13;;
44446;SDS011;30152;52.066;5.358;2023-02-23T19:28:17;22.08;;;4.45;;
44446;SDS011;30152;52.066;5.358;2023-02-23T19:30:44;18.25;;;3.38;;
44446;SDS011;30152;52.066;5.358;2023-02-23T19:33:13;23.45;;;3.30;;
44446;SDS011;30152;52.066;5.358;2023-02-23T19:35:39;24.48;;;3.53;;
44446;SDS011;30152;52.066;5.358;2023-02-23T19:38:06;19.52;;;2.70;;
44446;SDS011;30152;52.066;5.358;2023-02-23T19:40:32;16.67;;;2.70;;
44446;SDS011;30152;52.066;5.358;2023-02-23T19:43:01;16.83;;;4.05;;
44446;SDS011;30152;52.066;5.358;2023-02-23T19:45:27;28.42;;;3.50;;
44446;SDS011;30152;52.066;5.358;2023-02-23T19:47:54;26.65;;;3.97;;
44446;SDS011;30152;52.066;5.358;2023-02-23T19:50:20;16.83;;;3.33;;
44446;SDS011;30152;52.066;5.358;2023-02-23T19:52:46;23.20;;;4.20;;
44446;SDS011;30152;52.066;5.358;2023-02-23T19:55:13;23.98;;;3.05;;
44446;SDS011;30152;52.066;5.358;2023-02-23T19:57:39;22.38;;;2.53;;
44446;SDS011;30152;52.066;5.358;2023-02-23T20:00:06;21.40;;;2.85;;
44446;SDS011;30152;52.066;5.358;2023-02-23T20:02:36;31.40;;;3.03;;
44446;SDS011;30152;52.066;5.358;2023-02-23T20:05:06;19.67;;;2.80;;
44446;SDS011;30152;52.066;5.358;2023-02-23T20:07:32;15.85;;;2.42;;
44446;SDS011;30152;52.066;5.358;2023-02-23T20:09:58;15.10;;;2.45;;
44446;SDS011;30152;52.066;5.358;2023-02-23T20:12:25;17.85;;;2.95;;
44446;SDS011;30152;52.066;5.358;2023-02-23T20:14:52;20.10;;;3.40;;
44446;SDS011;30152;52.066;5.358;2023-02-23T20:17:19;18.30;;;3.40;;
44446;SDS011;30152;52.066;5.358;2023-02-23T20:19:45;26.73;;;3.72;;
44446;SDS011;30152;52.066;5.358;2023-02-23T20:22:11;23.73;;;3.80;;
44446;SDS011;30152;52.066;5.358;2023-02-23T20:24:37;18.17;;;2.25;;
44446;SDS011;30152;52.066;5.358;2023-02-23T20:27:03;21.35;;;2.88;;
44446;SDS011;30152;52.066;5.358;2023-02-23T20:29:28;20.10;;;2.67;;
44446;SDS011;30152;52.066;5.358;2023-02-23T20:31:55;21.30;;;2.92;;
44446;SDS011;30152;52.066;5.358;2023-02-23T20:34:23;18.98;;;2.95;;
44446;SDS011;30152;52.066;5.358;2023-02-23T20:36:49;14.32;;;2.50;;
44446;SDS011;30152;52.066;5.358;2023-02-23T20:39:15;15.45;;;2.55;;
44446;SDS011;30152;52.066;5.358;2023-02-23T20:41:42;17.20;;;2.13;;
44446;SDS011;30152;52.066;5.358;2023-02-23T20:44:10;18.95;;;2.80;;
44446;SDS011;30152;52.066;5.358;2023-02-23T20:46:37;40.03;;;9.98;;
44446;SDS011;30152;52.066;5.358;2023-02-23T20:49:04;84.25;;;23.60;;
44446;SDS011;30152;52.066;5.358;2023-02-23T20:51:34;68.30;;;20.30;;
44446;SDS011;30152;52.066;5.358;2023-02-23T20:54:00;28.92;;;8.55;;
44446;SDS011;30152;52.066;5.358;2023-02-23T20:56:26;31.00;;;6.22;;
44446;SDS011;30152;52.066;5.358;2023-02-23T20:58:56;19.27;;;4.25;;
44446;SDS011;30152;52.066;5.358;2023-02-23T21:01:22;24.77;;;4.22;;
44446;SDS011;30152;52.066;5.358;2023-02-23T21:03:50;12.93;;;1.90;;
44446;SDS011;30152;52.066;5.358;2023-02-23T21:06:16;11.07;;;1.65;;
44446;SDS011;30152;52.066;5.358;2023-02-23T21:08:43;12.38;;;3.15;;
44446;SDS011;30152;52.066;5.358;2023-02-23T21:11:12;15.50;;;2.42;;
44446;SDS011;30152;52.066;5.358;2023-02-23T21:13:38;13.52;;;2.08;;
44446;SDS011;30152;52.066;5.358;2023-02-23T21:16:04;14.88;;;2.53;;
44446;SDS011;30152;52.066;5.358;2023-02-23T21:18:30;12.80;;;1.75;;
44446;SDS011;30152;52.066;5.358;2023-02-23T21:20:57;17.23;;;2.10;;
44446;SDS011;30152;52.066;5.358;2023-02-23T21:23:30;12.27;;;2.22;;
44446;SDS011;30152;52.066;5.358;2023-02-23T21:25:56;15.05;;;2.13;;
44446;SDS011;30152;52.066;5.358;2023-02-23T21:28:25;24.25;;;3.38;;
44446;SDS011;30152;52.066;5.358;2023-02-23T21:30:51;14.15;;;2.35;;
44446;SDS011;30152;52.066;5.358;2023-02-23T21:33:17;11.25;;;1.85;;
44446;SDS011;30152;52.066;5.358;2023-02-23T21:35:43;16.00;;;2.55;;
44446;SDS011;30152;52.066;5.358;2023-02-23T21:38:09;19.58;;;2.22;;
44446;SDS011;30152;52.066;5.358;2023-02-23T21:40:35;14.23;;;1.92;;
44446;SDS011;30152;52.066;5.358;2023-02-23T21:43:06;14.48;;;2.83;;
44446;SDS011;30152;52.066;5.358;2023-02-23T21:45:33;17.95;;;3.50;;
44446;SDS011;30152;52.066;5.358;2023-02-23T21:47:59;16.38;;;3.45;;
44446;SDS011;30152;52.066;5.358;2023-02-23T21:50:24;19.33;;;3.67;;
44446;SDS011;30152;52.066;5.358;2023-02-23T21:52:50;14.00;;;4.30;;
44446;SDS011;30152;52.066;5.358;2023-02-23T21:55:19;14.52;;;3.72;;
44446;SDS011;30152;52.066;5.358;2023-02-23T21:57:45;14.38;;;3.10;;
44446;SDS011;30152;52.066;5.358;2023-02-23T22:00:12;16.75;;;2.22;;
44446;SDS011;30152;52.066;5.358;2023-02-23T22:02:40;19.52;;;3.28;;
44446;SDS011;30152;52.066;5.358;2023-02-23T22:05:10;19.75;;;3.22;;
44446;SDS011;30152;52.066;5.358;2023-02-23T22:07:36;17.02;;;2.88;;
44446;SDS011;30152;52.066;5.358;2023-02-23T22:10:02;16.58;;;2.92;;
44446;SDS011;30152;52.066;5.358;2023-02-23T22:12:28;15.57;;;3.28;;
44446;SDS011;30152;52.066;5.358;2023-02-23T22:14:56;18.23;;;2.83;;
44446;SDS011;30152;52.066;5.358;2023-02-23T22:17:23;27.77;;;3.97;;
44446;SDS011;30152;52.066;5.358;2023-02-23T22:19:49;18.80;;;3.53;;
44446;SDS011;30152;52.066;5.358;2023-02-23T22:22:17;33.10;;;4.80;;
44446;SDS011;30152;52.066;5.358;2023-02-23T22:24:44;21.55;;;2.72;;
44446;SDS011;30152;52.066;5.358;2023-02-23T22:27:10;17.08;;;2.60;;
44446;SDS011;30152;52.066;5.358;2023-02-23T22:29:37;12.70;;;2.47;;
44446;SDS011;30152;52.066;5.358;2023-02-23T22:32:03;15.32;;;2.45;;
44446;SDS011;30152;52.066;5.358;2023-02-23T22:34:29;21.23;;;3.92;;
44446;SDS011;30152;52.066;5.358;2023-02-23T22:36:55;15.63;;;2.85;;
44446;SDS011;30152;52.066;5.358;2023-02-23T22:39:22;34.35;;;4.78;;
44446;SDS011;30152;52.066;5.358;2023-02-23T22:41:47;19.27;;;3.42;;
44446;SDS011;30152;52.066;5.358;2023-02-23T22:44:14;21.08;;;2.80;;
44446;SDS011;30152;52.066;5.358;2023-02-23T22:46:42;25.52;;;5.00;;
44446;SDS011;30152;52.066;5.358;2023-02-23T22:49:11;16.23;;;3.10;;
